createdAt,value
2018-01-25T00:00:42.320Z,50.60
2018-01-25T00:03:11.542Z,50.87
2018-01-25T00:05:39.178Z,50.50
2018-01-25T00:08:06.901Z,50.69
2018-01-25T00:10:34.606Z,50.72
2018-01-25T00:13:02.340Z,51.02
2018-01-25T00:15:29.927Z,50.55
2018-01-25T00:17:57.597Z,50.78
2018-01-25T00:20:25.129Z,50.41
2018-01-25T00:22:52.642Z,50.66
2018-01-25T00:25:20.578Z,50.14
2018-01-25T00:27:48.253Z,50.08
2018-01-25T00:30:15.796Z,50.19
2018-01-25T00:32:44.277Z,50.44
2018-01-25T00:35:11.853Z,50.55
2018-01-25T00:37:39.599Z,49.60
2018-01-25T00:40:07.097Z,49.78
2018-01-25T00:42:34.614Z,49.56
2018-01-25T00:45:02.176Z,49.49
2018-01-25T00:47:29.675Z,49.04
2018-01-25T00:49:57.465Z,49.14
2018-01-25T00:52:25.001Z,48.64
2018-01-25T00:54:52.617Z,49.03
2018-01-25T00:57:20.161Z,48.46
2018-01-25T00:59:47.666Z,47.94
2018-01-25T01:02:15.228Z,47.75
2018-01-25T01:04:42.737Z,47.56
2018-01-25T01:07:11.231Z,47.59
2018-01-25T01:09:39.847Z,47.35
2018-01-25T01:12:07.372Z,47.47
2018-01-25T01:14:34.932Z,47.10
2018-01-25T01:17:02.441Z,47.15
2018-01-25T01:19:29.941Z,47.20
2018-01-25T01:21:57.508Z,46.78
2018-01-25T01:24:25.004Z,46.89
2018-01-25T01:26:52.537Z,46.95
2018-01-25T01:29:20.123Z,46.99
2018-01-25T01:31:47.654Z,46.89
2018-01-25T01:34:15.189Z,47.08
2018-01-25T01:36:42.698Z,47.37
2018-01-25T01:39:10.249Z,47.27
2018-01-25T01:41:38.685Z,47.37
2018-01-25T01:44:06.186Z,47.51
2018-01-25T01:46:33.741Z,47.61
2018-01-25T01:49:01.241Z,47.65
2018-01-25T01:51:29.008Z,47.85
2018-01-25T01:53:56.518Z,47.46
2018-01-25T01:56:24.051Z,47.64
2018-01-25T01:58:51.609Z,47.72
2018-01-25T02:01:19.112Z,47.86
2018-01-25T02:03:46.652Z,48.06
2018-01-25T02:06:14.186Z,48.09
2018-01-25T02:08:41.697Z,48.32
2018-01-25T02:11:09.225Z,48.36
2018-01-25T02:13:36.760Z,48.28
2018-01-25T02:16:04.524Z,48.62
2018-01-25T02:18:32.026Z,48.96
2018-01-25T02:20:59.549Z,47.91
2018-01-25T02:23:27.113Z,48.28
2018-01-25T02:25:54.659Z,48.69
2018-01-25T02:28:22.204Z,48.15
2018-01-25T02:30:49.715Z,48.29
2018-01-25T02:33:17.239Z,48.45
2018-01-25T02:35:44.767Z,48.70
2018-01-25T02:38:12.277Z,49.02
2018-01-25T02:40:39.833Z,49.45
2018-01-25T02:43:07.341Z,49.81
2018-01-25T02:45:34.870Z,49.68
2018-01-25T02:48:02.402Z,49.90
2018-01-25T02:50:29.910Z,50.57
2018-01-25T02:52:57.604Z,49.44
2018-01-25T02:55:25.113Z,49.18
2018-01-25T02:57:52.621Z,48.93
2018-01-25T03:00:20.187Z,48.83
2018-01-25T03:02:47.681Z,48.91
2018-01-25T03:05:15.504Z,49.32
2018-01-25T03:07:43.005Z,49.40
2018-01-25T03:10:11.032Z,47.78
2018-01-25T03:12:38.589Z,48.01
2018-01-25T03:15:06.089Z,48.18
2018-01-25T03:17:33.638Z,48.32
2018-01-25T03:20:01.166Z,48.03
2018-01-25T03:22:28.727Z,47.95
2018-01-25T03:24:56.692Z,47.96
2018-01-25T03:27:24.192Z,48.32
2018-01-25T03:29:52.030Z,48.60
2018-01-25T03:32:19.582Z,48.51
2018-01-25T03:34:47.085Z,48.65
2018-01-25T03:37:14.617Z,48.71
2018-01-25T03:39:42.150Z,47.94
2018-01-25T03:42:10.016Z,48.39
2018-01-25T03:44:37.515Z,48.51
2018-01-25T03:47:05.544Z,48.71
2018-01-25T03:49:33.207Z,49.33
2018-01-25T03:52:00.774Z,48.82
2018-01-25T03:54:28.564Z,48.65
2018-01-25T03:56:56.089Z,49.02
2018-01-25T03:59:23.586Z,49.00
2018-01-25T04:01:51.125Z,49.24
2018-01-25T04:04:18.624Z,49.54
2018-01-25T04:06:46.291Z,50.49
2018-01-25T04:09:13.797Z,51.02
2018-01-25T04:11:41.338Z,49.96
2018-01-25T04:14:08.900Z,49.52
2018-01-25T04:16:36.409Z,49.05
2018-01-25T04:19:04.096Z,49.22
2018-01-25T04:21:31.592Z,50.12
2018-01-25T04:23:59.138Z,49.67
2018-01-25T04:26:26.736Z,49.60
2018-01-25T04:28:54.257Z,49.69
2018-01-25T04:31:21.824Z,49.70
2018-01-25T04:33:49.372Z,49.80
2018-01-25T04:36:16.877Z,49.42
2018-01-25T04:38:44.404Z,49.37
2018-01-25T04:41:11.908Z,48.59
2018-01-25T04:43:39.541Z,48.99
2018-01-25T04:46:07.048Z,49.26
2018-01-25T04:48:34.553Z,49.63
2018-01-25T04:51:02.090Z,49.17
2018-01-25T04:53:29.592Z,49.03
2018-01-25T04:55:57.251Z,48.78
2018-01-25T04:58:24.757Z,49.04
2018-01-25T05:00:52.264Z,49.45
2018-01-25T05:03:19.802Z,48.84
2018-01-25T05:05:47.334Z,48.47
2018-01-25T05:08:14.878Z,47.99
2018-01-25T05:10:42.380Z,48.12
2018-01-25T05:13:09.888Z,47.32
2018-01-25T05:15:37.423Z,48.17
2018-01-25T05:18:04.932Z,47.32
2018-01-25T05:20:32.469Z,46.94
2018-01-25T05:22:59.975Z,47.12
2018-01-25T05:25:27.552Z,47.69
2018-01-25T05:27:55.065Z,47.03
2018-01-25T05:30:22.589Z,47.00
2018-01-25T05:32:50.178Z,47.92
2018-01-25T05:35:17.738Z,48.30
2018-01-25T05:37:45.477Z,48.13
2018-01-25T05:40:12.977Z,47.71
2018-01-25T05:42:40.517Z,47.78
2018-01-25T05:45:08.149Z,48.22
2018-01-25T05:47:35.681Z,48.48
2018-01-25T05:50:03.369Z,48.26
2018-01-25T05:52:30.887Z,47.31
2018-01-25T05:54:58.397Z,48.55
2018-01-25T05:57:25.930Z,47.77
2018-01-25T05:59:53.437Z,48.43
2018-01-25T06:02:21.001Z,48.91
2018-01-25T06:04:48.505Z,48.28
2018-01-25T06:07:16.008Z,48.54
2018-01-25T06:09:43.565Z,48.78
2018-01-25T06:12:11.073Z,48.03
2018-01-25T06:14:38.616Z,49.05
2018-01-25T06:17:06.126Z,49.20
2018-01-25T06:19:33.633Z,48.46
2018-01-25T06:22:01.160Z,49.65
2018-01-25T06:24:28.715Z,49.39
2018-01-25T06:26:56.269Z,49.56
2018-01-25T06:29:23.776Z,49.40
2018-01-25T06:31:51.276Z,50.05
2018-01-25T06:34:18.799Z,50.04
2018-01-25T06:36:46.309Z,50.43
2018-01-25T06:39:13.969Z,49.83
2018-01-25T06:41:41.527Z,49.25
2018-01-25T06:44:09.033Z,49.56
2018-01-25T06:46:36.565Z,50.55
2018-01-25T06:49:04.102Z,49.52
2018-01-25T06:51:31.865Z,49.64
2018-01-25T06:53:59.425Z,49.59
2018-01-25T06:56:26.930Z,49.57
2018-01-25T06:58:54.480Z,49.93
2018-01-25T07:01:21.985Z,49.87
2018-01-25T07:03:49.559Z,50.58
2018-01-25T07:06:17.059Z,50.30
2018-01-25T07:08:44.567Z,50.00
2018-01-25T07:11:12.119Z,49.48
2018-01-25T07:13:39.620Z,49.82
2018-01-25T07:16:07.184Z,49.26
2018-01-25T07:18:34.688Z,50.03
2018-01-25T07:21:02.186Z,49.79
2018-01-25T07:23:29.713Z,50.08
2018-01-25T07:25:57.216Z,50.33
2018-01-25T07:28:24.946Z,49.97
2018-01-25T07:30:52.445Z,49.34
2018-01-25T07:33:20.166Z,49.63
2018-01-25T07:35:48.137Z,49.70
2018-01-25T07:38:16.215Z,49.81
2018-01-25T07:40:43.868Z,49.74
2018-01-25T07:43:11.368Z,49.65
2018-01-25T07:45:38.884Z,49.16
2018-01-25T07:48:06.425Z,48.96
2018-01-25T07:50:33.934Z,49.12
2018-01-25T07:53:01.663Z,49.54
2018-01-25T07:55:29.222Z,49.35
2018-01-25T08:00:55.409Z,48.25
2018-01-25T08:03:23.182Z,47.90
2018-01-25T08:05:50.693Z,48.73
2018-01-25T08:08:18.245Z,48.74
2018-01-25T08:10:45.808Z,48.26
2018-01-25T08:13:18.823Z,49.08
2018-01-25T08:15:46.370Z,48.99
2018-01-25T08:18:13.916Z,49.09
2018-01-25T08:20:41.904Z,48.56
2018-01-25T08:23:09.449Z,48.40
2018-01-25T08:25:36.952Z,47.68
2018-01-25T08:28:05.386Z,47.36
2018-01-25T08:30:33.742Z,47.48
2018-01-25T08:33:01.626Z,47.76
2018-01-25T08:35:29.184Z,47.69
2018-01-25T08:37:56.696Z,47.76
2018-01-25T08:40:24.228Z,48.29
2018-01-25T08:42:51.758Z,47.87
2018-01-25T08:45:19.493Z,48.03
2018-01-25T08:47:47.001Z,46.66
2018-01-25T08:50:14.504Z,47.01
2018-01-25T08:52:42.038Z,46.83
2018-01-25T08:55:09.550Z,46.76
2018-01-25T08:57:37.236Z,46.24
2018-01-25T09:00:04.775Z,47.09
2018-01-25T09:02:32.285Z,46.06
2018-01-25T09:04:59.811Z,46.10
2018-01-25T09:07:27.350Z,46.29
2018-01-25T09:09:55.124Z,45.54
2018-01-25T09:12:22.636Z,45.87
2018-01-25T09:14:50.153Z,46.15
2018-01-25T09:17:17.709Z,46.03
2018-01-25T09:19:45.248Z,45.95
2018-01-25T09:22:13.122Z,45.19
2018-01-25T09:24:40.634Z,44.63
2018-01-25T09:27:08.150Z,44.21
2018-01-25T09:29:35.705Z,43.23
2018-01-25T09:32:03.220Z,42.38
2018-01-25T09:34:30.809Z,41.41
2018-01-25T09:36:58.369Z,40.58
2018-01-25T09:39:25.873Z,39.33
2018-01-25T09:41:53.402Z,38.93
2018-01-25T09:44:20.942Z,38.74
2018-01-25T09:46:48.503Z,37.51
2018-01-25T09:49:16.009Z,37.07
2018-01-25T09:51:43.700Z,36.99
2018-01-25T09:54:11.293Z,36.95
2018-01-25T09:56:38.841Z,36.90
2018-01-25T09:59:06.588Z,35.61
2018-01-25T10:01:34.085Z,34.76
2018-01-25T10:04:01.586Z,32.60
2018-01-25T10:06:29.115Z,32.59
2018-01-25T10:08:56.623Z,31.63
2018-01-25T10:11:24.298Z,30.21
2018-01-25T10:13:51.804Z,28.43
2018-01-25T10:16:19.328Z,26.76
2018-01-25T10:18:46.873Z,26.47
2018-01-25T10:21:14.372Z,26.04
2018-01-25T10:23:41.933Z,26.76
2018-01-25T10:26:09.448Z,27.53
2018-01-25T10:28:36.965Z,26.49
2018-01-25T10:31:04.489Z,25.87
2018-01-25T10:33:32.946Z,25.48
2018-01-25T10:36:00.844Z,25.28
2018-01-25T10:38:28.373Z,25.72
2018-01-25T10:40:55.944Z,26.59
2018-01-25T10:43:23.499Z,28.03
2018-01-25T10:45:51.116Z,27.97
2018-01-25T10:48:18.745Z,28.83
2018-01-25T10:50:46.261Z,29.07
2018-01-25T10:53:13.942Z,30.14
2018-01-25T10:55:42.411Z,30.92
2018-01-25T10:58:09.924Z,31.59
2018-01-25T11:00:43.008Z,32.36
2018-01-25T11:03:10.514Z,32.54
2018-01-25T11:05:38.023Z,32.89
2018-01-25T11:08:06.043Z,33.54
2018-01-25T11:10:33.553Z,33.30
2018-01-25T11:13:01.101Z,33.79
2018-01-25T11:15:28.613Z,33.40
2018-01-25T11:17:56.116Z,33.20
2018-01-25T11:20:23.647Z,32.74
2018-01-25T11:22:51.158Z,33.77
2018-01-25T11:25:18.695Z,35.31
2018-01-25T11:27:46.236Z,34.94
2018-01-25T11:30:13.923Z,34.90
2018-01-25T11:32:42.169Z,34.90
2018-01-25T11:35:09.676Z,36.24
2018-01-25T11:37:37.254Z,36.00
2018-01-25T11:40:04.765Z,35.76
2018-01-25T11:42:32.271Z,37.32
2018-01-25T11:44:59.797Z,36.68
2018-01-25T11:47:27.317Z,35.92
2018-01-25T11:49:54.888Z,35.73
2018-01-25T11:52:22.416Z,35.80
2018-01-25T11:54:49.979Z,35.88
2018-01-25T11:57:17.532Z,35.44
2018-01-25T11:59:45.490Z,35.93
2018-01-25T12:02:13.061Z,36.03
2018-01-25T12:04:40.621Z,35.85
2018-01-25T12:07:08.095Z,36.13
2018-01-25T12:09:35.695Z,36.68
2018-01-25T12:12:03.403Z,36.62
2018-01-25T12:14:31.163Z,36.66
2018-01-25T12:16:58.668Z,36.39
2018-01-25T12:19:26.192Z,36.73
2018-01-25T12:21:53.747Z,37.31
2018-01-25T12:24:22.324Z,36.25
2018-01-25T12:26:50.085Z,36.24
2018-01-25T12:29:18.547Z,35.71
2018-01-25T12:31:46.077Z,35.90
2018-01-25T12:34:13.608Z,35.93
2018-01-25T12:36:41.142Z,36.15
2018-01-25T12:39:08.796Z,36.71
2018-01-25T12:41:36.305Z,36.17
2018-01-25T12:44:03.825Z,36.17
2018-01-25T12:46:32.103Z,35.99
2018-01-25T12:48:59.658Z,35.50
2018-01-25T12:51:27.209Z,35.42
2018-01-25T12:53:54.708Z,36.13
2018-01-25T12:56:22.218Z,35.79
2018-01-25T12:58:49.757Z,35.86
2018-01-25T13:01:17.273Z,36.25
2018-01-25T13:03:45.152Z,36.77
2018-01-25T13:06:12.875Z,36.72
2018-01-25T13:08:40.377Z,37.04
2018-01-25T13:11:07.904Z,37.37
2018-01-25T13:13:35.452Z,37.73
2018-01-25T13:16:03.013Z,37.78
2018-01-25T13:18:30.570Z,38.17
2018-01-25T13:20:58.074Z,37.65
2018-01-25T13:23:25.698Z,38.36
2018-01-25T13:25:53.249Z,37.71
2018-01-25T13:28:21.010Z,38.74
2018-01-25T13:30:48.982Z,38.53
2018-01-25T13:33:22.244Z,39.29
2018-01-25T13:35:49.751Z,38.29
2018-01-25T13:38:17.254Z,39.27
2018-01-25T13:40:44.792Z,39.36
2018-01-25T13:43:12.297Z,39.08
2018-01-25T13:45:39.876Z,39.37
2018-01-25T13:48:07.370Z,39.79
2018-01-25T13:50:34.878Z,39.41
2018-01-25T13:53:02.408Z,38.80
2018-01-25T13:55:29.913Z,38.88
2018-01-25T13:57:57.660Z,38.55
2018-01-25T14:00:25.219Z,39.84
2018-01-25T14:02:52.725Z,39.31
2018-01-25T14:05:20.261Z,39.20
2018-01-25T14:07:47.772Z,38.55
2018-01-25T14:10:15.557Z,38.86
2018-01-25T14:12:43.119Z,39.00
2018-01-25T14:15:10.679Z,38.82
2018-01-25T14:17:38.237Z,38.64
2018-01-25T14:20:05.797Z,38.66
2018-01-25T14:22:33.558Z,38.49
2018-01-25T14:25:01.086Z,38.53
2018-01-25T14:27:28.610Z,38.47
2018-01-25T14:29:56.309Z,38.66
2018-01-25T14:32:23.846Z,38.31
2018-01-25T14:34:51.407Z,37.81
2018-01-25T14:37:18.909Z,38.09
2018-01-25T14:39:46.516Z,38.10
2018-01-25T14:42:14.043Z,37.98
2018-01-25T14:44:41.591Z,37.95
2018-01-25T14:47:09.140Z,38.03
2018-01-25T14:49:36.813Z,38.26
2018-01-25T14:52:04.321Z,38.13
2018-01-25T14:54:32.023Z,38.45
2018-01-25T14:56:59.514Z,38.35
2018-01-25T14:59:27.152Z,38.10
2018-01-25T15:01:54.709Z,38.35
2018-01-25T15:04:22.248Z,38.33
2018-01-25T15:06:49.774Z,38.48
2018-01-25T15:09:17.381Z,37.93
2018-01-25T15:11:44.913Z,38.48
2018-01-25T15:14:12.507Z,38.68
2018-01-25T15:16:40.025Z,39.12
2018-01-25T15:19:07.558Z,39.43
2018-01-25T15:21:35.142Z,39.56
2018-01-25T15:24:02.867Z,40.07
2018-01-25T15:26:30.385Z,40.43
2018-01-25T15:28:57.901Z,40.84
2018-01-25T15:31:25.433Z,41.03
2018-01-25T15:33:53.369Z,41.05
2018-01-25T15:36:20.913Z,41.45
2018-01-25T15:38:48.611Z,41.86
2018-01-25T15:41:16.189Z,41.84
2018-01-25T15:43:43.776Z,42.08
2018-01-25T15:46:11.314Z,42.26
2018-01-25T15:48:38.880Z,42.56
2018-01-25T15:51:06.407Z,42.40
2018-01-25T15:53:33.931Z,42.55
2018-01-25T15:56:01.481Z,42.55
2018-01-25T15:58:29.187Z,42.86
2018-01-25T16:00:56.745Z,43.30
2018-01-25T16:03:24.320Z,43.60
2018-01-25T16:05:51.864Z,43.69
2018-01-25T16:08:21.676Z,43.71
2018-01-25T16:10:49.236Z,43.73
2018-01-25T16:13:17.203Z,44.00
2018-01-25T16:15:44.763Z,44.27
2018-01-25T16:18:18.368Z,44.73
2018-01-25T16:20:45.879Z,45.23
2018-01-25T16:23:13.390Z,45.42
2018-01-25T16:25:40.952Z,45.80
2018-01-25T16:28:08.905Z,46.11
2018-01-25T16:30:36.876Z,45.83
2018-01-25T16:33:04.616Z,45.99
2018-01-25T16:35:32.202Z,46.27
2018-01-25T16:37:59.758Z,46.74
2018-01-25T16:40:28.078Z,47.19
2018-01-25T16:42:55.672Z,47.24
2018-01-25T16:45:23.441Z,47.27
2018-01-25T16:47:51.226Z,47.61
2018-01-25T16:50:18.805Z,47.58
2018-01-25T16:52:46.381Z,47.42
2018-01-25T16:55:14.211Z,47.48
2018-01-25T16:57:41.744Z,47.53
2018-01-25T17:00:09.288Z,47.99
2018-01-25T17:02:36.887Z,48.45
2018-01-25T17:05:04.558Z,48.50
2018-01-25T17:07:32.226Z,48.36
2018-01-25T17:10:00.127Z,48.32
2018-01-25T17:12:28.046Z,48.46
2018-01-25T17:14:56.014Z,48.60
2018-01-25T17:17:23.784Z,48.74
2018-01-25T17:19:51.849Z,48.67
2018-01-25T17:22:19.571Z,49.15
2018-01-25T17:24:47.274Z,48.92
2018-01-25T17:27:15.141Z,48.65
2018-01-25T17:29:43.007Z,48.87
2018-01-25T17:32:11.089Z,48.94
2018-01-25T17:34:38.863Z,48.88
2018-01-25T17:37:07.121Z,48.67
2018-01-25T17:39:34.781Z,49.24
2018-01-25T17:42:02.439Z,49.71
2018-01-25T17:44:31.442Z,50.63
2018-01-25T17:46:59.404Z,50.76
2018-01-25T17:49:28.100Z,50.82
2018-01-25T17:51:56.059Z,50.94
2018-01-25T17:54:23.655Z,51.16
2018-01-25T17:56:51.608Z,51.21
2018-01-25T17:59:19.562Z,50.85
2018-01-25T18:01:47.333Z,51.09
2018-01-25T18:04:15.866Z,51.23
2018-01-25T18:06:44.176Z,51.07
2018-01-25T18:09:12.151Z,51.08
2018-01-25T18:11:40.218Z,51.04
2018-01-25T18:14:07.986Z,50.89
2018-01-25T18:16:36.011Z,50.64
2018-01-25T18:19:03.714Z,50.51
2018-01-25T18:21:32.729Z,49.84
2018-01-25T18:24:00.734Z,49.09
2018-01-25T18:26:28.747Z,49.06
2018-01-25T18:28:57.319Z,48.93
2018-01-25T18:31:25.197Z,48.35
2018-01-25T18:33:53.017Z,48.10
2018-01-25T18:36:20.851Z,48.03
2018-01-25T18:38:48.918Z,47.96
2018-01-25T18:41:16.764Z,47.30
2018-01-25T18:43:45.143Z,47.11
2018-01-25T18:46:13.316Z,47.06
2018-01-25T18:48:41.287Z,46.54
2018-01-25T18:51:09.221Z,46.02
2018-01-25T18:53:38.041Z,45.87
2018-01-25T18:56:06.011Z,46.20
2018-01-25T18:58:34.184Z,45.48
2018-01-25T19:01:02.887Z,45.25
2018-01-25T19:03:30.737Z,45.11
2018-01-25T19:05:58.947Z,45.12
2018-01-25T19:08:26.912Z,44.93
2018-01-25T19:10:56.505Z,45.20
2018-01-25T19:13:24.373Z,45.73
2018-01-25T19:15:52.333Z,45.34
2018-01-25T19:18:20.289Z,45.02
2018-01-25T19:20:48.273Z,45.81
2018-01-25T19:23:16.446Z,46.23
2018-01-25T19:25:44.257Z,46.09
2018-01-25T19:28:12.166Z,45.78
2018-01-25T19:30:40.133Z,45.91
2018-01-25T19:33:08.282Z,45.90
2018-01-25T19:35:36.583Z,46.14
2018-01-25T19:38:04.358Z,46.01
2018-01-25T19:40:32.121Z,46.46
2018-01-25T19:42:59.978Z,46.16
2018-01-25T19:45:27.847Z,45.95
2018-01-25T19:47:56.235Z,46.99
2018-01-25T19:50:24.153Z,47.13
2018-01-25T19:52:52.058Z,46.54
2018-01-25T19:55:19.951Z,46.38
2018-01-25T19:57:47.858Z,46.76
2018-01-25T20:00:16.578Z,46.91
2018-01-25T20:02:44.346Z,46.89
2018-01-25T20:05:13.234Z,46.11
2018-01-25T20:07:41.929Z,46.22
2018-01-25T20:10:10.161Z,46.64
2018-01-25T20:12:38.267Z,47.12
2018-01-25T20:15:06.234Z,46.83
2018-01-25T20:17:34.011Z,47.43
2018-01-25T20:20:01.970Z,47.04
2018-01-25T20:22:30.349Z,46.56
2018-01-25T20:24:58.419Z,46.37
2018-01-25T20:27:26.751Z,46.17
2018-01-25T20:29:54.664Z,46.55
2018-01-25T20:32:22.591Z,46.45
2018-01-25T20:34:50.357Z,46.61
2018-01-25T20:37:19.490Z,46.61
2018-01-25T20:39:47.610Z,46.90
2018-01-25T20:42:15.844Z,47.24
2018-01-25T20:44:44.197Z,47.71
2018-01-25T20:47:12.040Z,47.95
2018-01-25T20:49:39.847Z,47.73
2018-01-25T20:52:07.918Z,47.80
2018-01-25T20:54:35.699Z,47.79
2018-01-25T20:57:03.570Z,48.12
2018-01-25T20:59:31.414Z,48.45
2018-01-25T21:01:59.489Z,48.15
2018-01-25T21:04:27.561Z,48.30
2018-01-25T21:06:55.525Z,48.49
2018-01-25T21:09:23.385Z,47.93
2018-01-25T21:11:51.172Z,48.66
2018-01-25T21:14:19.232Z,48.73
2018-01-25T21:16:47.011Z,48.10
2018-01-25T21:19:14.959Z,49.55
2018-01-25T21:21:43.621Z,49.18
2018-01-25T21:24:11.411Z,48.72
2018-01-25T21:26:40.609Z,48.31
2018-01-25T21:29:08.385Z,48.42
2018-01-25T21:31:36.565Z,49.57
2018-01-25T21:34:10.869Z,49.62
2018-01-25T21:36:38.729Z,49.55
2018-01-25T21:39:06.989Z,49.63
2018-01-25T21:41:35.071Z,49.50
2018-01-25T21:44:02.742Z,48.66
2018-01-25T21:46:31.490Z,48.82
2018-01-25T21:48:59.359Z,48.98
2018-01-25T21:51:27.565Z,49.03
2018-01-25T21:53:55.329Z,50.03
2018-01-25T21:56:22.940Z,50.55
2018-01-25T21:58:50.634Z,50.11
2018-01-25T22:01:18.261Z,50.06
2018-01-25T22:03:45.854Z,50.24
2018-01-25T22:06:13.469Z,50.58
2018-01-25T22:08:41.093Z,50.06
2018-01-25T22:11:08.756Z,50.04
2018-01-25T22:13:36.270Z,50.65
2018-01-25T22:16:03.949Z,51.40
2018-01-25T22:18:31.523Z,50.76
2018-01-25T22:20:59.197Z,50.35
2018-01-25T22:23:26.802Z,50.49
2018-01-25T22:25:54.308Z,50.57
2018-01-25T22:28:21.885Z,51.40
2018-01-25T22:30:49.435Z,51.23
2018-01-25T22:33:16.944Z,51.15
2018-01-25T22:35:44.480Z,50.82
2018-01-25T22:38:12.009Z,50.32
2018-01-25T22:40:39.764Z,50.11
2018-01-25T22:43:07.276Z,50.37
2018-01-25T22:45:34.786Z,50.21
2018-01-25T22:48:02.336Z,50.35
2018-01-25T22:50:29.846Z,51.35
2018-01-25T22:52:57.389Z,51.08
2018-01-25T22:55:24.924Z,52.49
2018-01-25T22:57:52.483Z,51.64
2018-01-25T23:00:31.923Z,52.05
2018-01-25T23:02:59.438Z,51.09
2018-01-25T23:05:26.996Z,51.83
2018-01-25T23:07:54.508Z,51.33
2018-01-25T23:10:22.100Z,50.53
2018-01-25T23:12:49.616Z,51.03
2018-01-25T23:15:17.208Z,51.90
2018-01-25T23:17:44.909Z,51.73
2018-01-25T23:20:12.417Z,51.53
2018-01-25T23:22:39.952Z,50.67
2018-01-25T23:25:07.512Z,51.54
2018-01-25T23:27:35.023Z,51.62
2018-01-25T23:30:02.651Z,51.81
2018-01-25T23:32:30.129Z,51.67
2018-01-25T23:34:57.641Z,51.17
2018-01-25T23:37:25.181Z,51.18
2018-01-25T23:39:52.693Z,50.99
2018-01-25T23:42:20.939Z,50.71
2018-01-25T23:44:48.445Z,51.55
2018-01-25T23:47:15.955Z,51.46
2018-01-25T23:49:43.513Z,51.58
2018-01-25T23:52:11.073Z,50.69
2018-01-25T23:54:38.836Z,51.07
2018-01-25T23:57:06.348Z,52.00
2018-01-25T23:59:33.857Z,50.60
